Time;durP1;ratioP1;P1;durP2;ratioP2;P2;SDS_P1;SDS_P2;PMS_P1;PMS_P2;Temp;Humidity;BMP_temperature;BMP_pressure;BME280_temperature;BME280_humidity;BME280_pressure;Samples;Min_cycle;Max_cycle;Signal;HPM_P1;HPM_P2
2023/08/16 00:01:10;;;;;;;13.43;8.05;;;;;;;;;;4388056;32;317319;-82
2023/08/16 00:03:37;;;;;;;12.02;7.57;;;;;;;;;;4396888;32;317798;-82
2023/08/16 00:06:10;;;;;;;13.70;8.45;;;;;;;;;;4373466;32;318302;-82
2023/08/16 00:08:37;;;;;;;11.12;8.60;;;;;;;;;;4380287;32;317954;-82
2023/08/16 00:11:04;;;;;;;13.25;8.13;;;;;;;;;;4356497;32;318047;-82
2023/08/16 00:13:32;;;;;;;9.18;7.60;;;;;;;;;;4366312;32;317616;-81
2023/08/16 00:15:59;;;;;;;9.80;7.90;;;;;;;;;;4365205;32;317677;-82
2023/08/16 00:18:26;;;;;;;9.52;7.82;;;;;;;;;;4382918;32;317230;-82
2023/08/16 00:20:52;;;;;;;11.45;8.02;;;;;;;;;;4379018;32;317843;-82
2023/08/16 00:23:19;;;;;;;10.00;8.07;;;;;;;;;;4375321;32;317823;-81
2023/08/16 00:25:46;;;;;;;10.48;8.18;;;;;;;;;;4384432;32;318286;-81
2023/08/16 00:28:13;;;;;;;8.85;7.62;;;;;;;;;;4375730;32;318435;-82
2023/08/16 00:30:41;;;;;;;12.85;8.05;;;;;;;;;;4371279;32;316875;-82
2023/08/16 00:33:07;;;;;;;13.20;8.52;;;;;;;;;;4375848;32;317772;-82
2023/08/16 00:35:34;;;;;;;9.52;8.43;;;;;;;;;;4384614;32;318237;-82
2023/08/16 00:38:01;;;;;;;10.00;8.23;;;;;;;;;;4373894;32;341104;-82
2023/08/16 00:40:28;;;;;;;10.13;8.45;;;;;;;;;;4385353;32;317707;-82
2023/08/16 00:42:54;;;;;;;11.68;9.10;;;;;;;;;;4375555;32;318293;-82
2023/08/16 00:45:21;;;;;;;10.88;9.13;;;;;;;;;;4384616;32;318535;-82
2023/08/16 00:47:49;;;;;;;10.55;8.88;;;;;;;;;;4384101;32;318540;-82
2023/08/16 00:50:16;;;;;;;10.57;9.05;;;;;;;;;;4373895;32;318374;-82
2023/08/16 00:52:43;;;;;;;11.30;8.65;;;;;;;;;;4385242;32;318269;-82
2023/08/16 00:55:10;;;;;;;9.60;8.48;;;;;;;;;;4379439;32;317426;-82
2023/08/16 00:57:37;;;;;;;10.23;8.90;;;;;;;;;;4398895;32;316994;-82
2023/08/16 01:00:05;;;;;;;11.30;9.50;;;;;;;;;;4387753;32;346605;-82
2023/08/16 01:02:32;;;;;;;11.88;8.52;;;;;;;;;;4397694;32;338246;-82
2023/08/16 01:05:00;;;;;;;14.18;9.55;;;;;;;;;;4390115;32;317739;-82
2023/08/16 01:07:26;;;;;;;9.18;8.23;;;;;;;;;;4399860;32;317619;-82
2023/08/16 01:09:53;;;;;;;19.12;8.40;;;;;;;;;;4399780;32;317171;-82
2023/08/16 01:12:25;;;;;;;15.00;8.60;;;;;;;;;;4385573;32;417273;-82
2023/08/16 01:14:58;;;;;;;11.57;8.68;;;;;;;;;;4399582;32;318280;-82
2023/08/16 01:17:26;;;;;;;8.48;7.57;;;;;;;;;;4386599;32;417615;-82
2023/08/16 01:19:57;;;;;;;11.07;8.77;;;;;;;;;;4399976;32;317088;-82
2023/08/16 01:22:33;;;;;;;10.85;9.27;;;;;;;;;;4386888;32;417713;-82
2023/08/16 01:25:12;;;;;;;9.13;8.23;;;;;;;;;;4389762;32;317878;-82
2023/08/16 01:27:40;;;;;;;10.88;8.50;;;;;;;;;;4396003;32;317189;-82
2023/08/16 01:30:09;;;;;;;11.43;7.87;;;;;;;;;;4374312;32;317929;-82
2023/08/16 01:32:38;;;;;;;12.70;9.02;;;;;;;;;;4384053;32;317674;-82
2023/08/16 01:35:05;;;;;;;14.27;9.18;;;;;;;;;;4374477;32;317490;-82
2023/08/16 01:37:32;;;;;;;13.50;8.90;;;;;;;;;;4368540;32;358510;-82
2023/08/16 01:40:03;;;;;;;10.07;8.88;;;;;;;;;;4368888;32;317843;-82
2023/08/16 01:42:33;;;;;;;9.40;8.43;;;;;;;;;;4384432;32;318109;-82
2023/08/16 01:45:02;;;;;;;10.98;9.02;;;;;;;;;;4373092;32;316973;-82
2023/08/16 01:47:30;;;;;;;9.73;8.15;;;;;;;;;;4370436;32;317559;-82
2023/08/16 01:49:57;;;;;;;9.90;8.05;;;;;;;;;;4374318;32;316679;-82
2023/08/16 01:52:26;;;;;;;10.80;8.02;;;;;;;;;;4384204;32;316745;-82
2023/08/16 01:54:53;;;;;;;9.27;7.97;;;;;;;;;;4357067;32;317604;-82
2023/08/16 01:57:20;;;;;;;13.95;7.97;;;;;;;;;;4363152;32;417939;-82
2023/08/16 01:59:47;;;;;;;12.48;8.10;;;;;;;;;;4382864;32;349764;-82
2023/08/16 02:02:15;;;;;;;11.40;8.18;;;;;;;;;;4373481;32;323502;-82
2023/08/16 02:04:42;;;;;;;8.55;7.55;;;;;;;;;;4382125;32;318106;-82
2023/08/16 02:07:09;;;;;;;8.70;7.90;;;;;;;;;;4373973;32;336713;-82
2023/08/16 02:09:35;;;;;;;12.90;8.35;;;;;;;;;;4384249;32;317399;-82
2023/08/16 02:12:02;;;;;;;10.07;8.52;;;;;;;;;;4372460;32;317697;-82
2023/08/16 02:14:29;;;;;;;10.45;8.38;;;;;;;;;;4382694;32;317560;-82
2023/08/16 02:16:56;;;;;;;10.05;8.13;;;;;;;;;;4373831;32;317565;-82
2023/08/16 02:19:24;;;;;;;10.85;8.50;;;;;;;;;;4383869;32;318292;-82
2023/08/16 02:21:50;;;;;;;10.82;8.55;;;;;;;;;;4383891;32;317562;-82
2023/08/16 02:24:17;;;;;;;9.00;7.90;;;;;;;;;;4372844;32;318212;-82
2023/08/16 02:26:46;;;;;;;13.95;8.25;;;;;;;;;;4382720;32;317133;-82
2023/08/16 02:29:12;;;;;;;11.05;8.40;;;;;;;;;;4373319;32;317359;-82
2023/08/16 02:31:39;;;;;;;12.13;9.43;;;;;;;;;;4383232;32;317602;-82
2023/08/16 02:34:06;;;;;;;8.93;8.02;;;;;;;;;;4372692;32;318418;-82
2023/08/16 02:36:34;;;;;;;16.20;8.57;;;;;;;;;;4384033;32;316432;-82
2023/08/16 02:39:01;;;;;;;9.52;7.55;;;;;;;;;;4378821;32;331988;-82
2023/08/16 02:41:28;;;;;;;10.23;9.10;;;;;;;;;;4391354;32;316929;-82
2023/08/16 02:43:55;;;;;;;10.70;8.55;;;;;;;;;;4378597;32;318101;-82
2023/08/16 02:46:21;;;;;;;12.55;9.20;;;;;;;;;;4401831;32;316721;-83
2023/08/16 02:48:48;;;;;;;11.43;8.70;;;;;;;;;;4396182;32;317037;-82
2023/08/16 02:51:15;;;;;;;14.65;8.77;;;;;;;;;;4374529;32;355814;-81
2023/08/16 02:53:43;;;;;;;9.52;7.80;;;;;;;;;;4383381;32;317670;-82
2023/08/16 02:56:10;;;;;;;13.38;7.85;;;;;;;;;;4360748;32;322978;-80
2023/08/16 02:58:36;;;;;;;15.90;8.25;;;;;;;;;;4367864;32;317594;-80
2023/08/16 03:01:03;;;;;;;14.55;8.55;;;;;;;;;;4356968;32;317692;-80
2023/08/16 03:03:30;;;;;;;9.38;8.07;;;;;;;;;;4366762;32;318409;-80
2023/08/16 03:05:57;;;;;;;10.75;8.80;;;;;;;;;;4357678;32;347362;-79
2023/08/16 03:08:23;;;;;;;13.05;8.48;;;;;;;;;;4368371;32;318534;-79
2023/08/16 03:10:52;;;;;;;9.23;8.13;;;;;;;;;;4365496;32;317434;-80
2023/08/16 03:13:18;;;;;;;11.75;9.50;;;;;;;;;;4358166;32;317684;-79
2023/08/16 03:15:45;;;;;;;16.42;9.20;;;;;;;;;;4366944;32;318653;-82
2023/08/16 03:18:12;;;;;;;10.52;9.43;;;;;;;;;;4357618;32;335446;-81
2023/08/16 03:20:39;;;;;;;14.50;9.15;;;;;;;;;;4369604;32;318130;-81
2023/08/16 03:23:06;;;;;;;10.98;8.98;;;;;;;;;;4354720;32;352944;-81
2023/08/16 03:25:36;;;;;;;20.12;8.90;;;;;;;;;;4382964;32;317624;-81
2023/08/16 03:28:04;;;;;;;10.70;9.18;;;;;;;;;;4378859;32;317497;-81
2023/08/16 03:30:31;;;;;;;18.80;10.68;;;;;;;;;;4397986;32;317356;-81
2023/08/16 03:32:58;;;;;;;20.10;12.13;;;;;;;;;;4373545;32;319219;-81
2023/08/16 03:35:25;;;;;;;18.95;12.88;;;;;;;;;;4397936;32;319009;-81
2023/08/16 03:37:52;;;;;;;20.70;12.85;;;;;;;;;;4398022;32;319333;-82
2023/08/16 03:40:18;;;;;;;15.82;12.55;;;;;;;;;;4388160;32;318689;-82
2023/08/16 03:42:45;;;;;;;23.50;14.13;;;;;;;;;;4396898;32;319398;-82
2023/08/16 03:45:13;;;;;;;20.00;13.23;;;;;;;;;;4373051;32;319283;-81
2023/08/16 03:47:41;;;;;;;19.87;12.07;;;;;;;;;;4396826;32;318449;-81
2023/08/16 03:50:08;;;;;;;20.65;12.60;;;;;;;;;;4388073;32;319375;-81
2023/08/16 03:52:35;;;;;;;23.52;11.68;;;;;;;;;;4390440;32;319372;-81
2023/08/16 03:55:03;;;;;;;15.13;11.18;;;;;;;;;;4376934;32;319022;-81
2023/08/16 03:57:29;;;;;;;16.08;11.35;;;;;;;;;;4370495;32;318924;-81
2023/08/16 03:59:56;;;;;;;17.80;10.60;;;;;;;;;;4358321;32;319059;-81
2023/08/16 04:02:25;;;;;;;12.35;9.40;;;;;;;;;;4370279;32;331866;-82
2023/08/16 04:04:53;;;;;;;16.90;11.10;;;;;;;;;;4384745;32;317804;-81
2023/08/16 04:07:20;;;;;;;15.98;9.85;;;;;;;;;;4365662;32;418214;-81
2023/08/16 04:09:47;;;;;;;11.80;9.95;;;;;;;;;;4384629;32;317623;-81
2023/08/16 04:12:14;;;;;;;19.08;9.80;;;;;;;;;;4375020;32;317692;-81
2023/08/16 04:14:41;;;;;;;11.90;9.52;;;;;;;;;;4385797;32;317715;-81
2023/08/16 04:17:07;;;;;;;13.10;9.65;;;;;;;;;;4373146;32;317579;-81
2023/08/16 04:19:35;;;;;;;10.73;9.13;;;;;;;;;;4384411;32;317868;-81
2023/08/16 04:22:02;;;;;;;13.10;9.68;;;;;;;;;;4358062;32;318359;-81
2023/08/16 04:24:29;;;;;;;16.05;9.55;;;;;;;;;;4374331;32;327366;-81
2023/08/16 04:26:56;;;;;;;15.55;10.00;;;;;;;;;;4364623;32;317974;-81
2023/08/16 04:29:23;;;;;;;14.95;9.10;;;;;;;;;;4385159;32;319143;-81
2023/08/16 04:31:50;;;;;;;14.45;10.27;;;;;;;;;;4385105;32;317913;-81
2023/08/16 04:34:17;;;;;;;15.25;10.20;;;;;;;;;;4375541;32;319135;-81
2023/08/16 04:36:45;;;;;;;18.58;10.30;;;;;;;;;;4385202;32;318819;-82
2023/08/16 04:39:12;;;;;;;13.07;9.38;;;;;;;;;;4375598;32;318542;-82
2023/08/16 04:41:39;;;;;;;19.67;10.95;;;;;;;;;;4377788;32;317961;-81
2023/08/16 04:44:06;;;;;;;15.43;10.93;;;;;;;;;;4374389;32;319306;-80
2023/08/16 04:46:33;;;;;;;18.00;10.20;;;;;;;;;;4383635;32;318828;-81
2023/08/16 04:49:00;;;;;;;11.93;10.65;;;;;;;;;;4373863;32;319218;-82
2023/08/16 04:51:27;;;;;;;18.15;10.50;;;;;;;;;;4383736;32;319213;-81
2023/08/16 04:53:55;;;;;;;13.48;10.05;;;;;;;;;;4385156;32;319350;-81
2023/08/16 04:56:22;;;;;;;18.45;10.52;;;;;;;;;;4343982;32;391060;-81
2023/08/16 04:58:49;;;;;;;13.05;10.27;;;;;;;;;;4369554;32;318499;-81
2023/08/16 05:01:16;;;;;;;20.77;12.35;;;;;;;;;;4359819;32;319109;-81
2023/08/16 05:03:49;;;;;;;43.95;16.83;;;;;;;;;;4369678;32;318403;-81
2023/08/16 05:06:16;;;;;;;25.12;16.50;;;;;;;;;;4357951;32;318775;-81
2023/08/16 05:08:43;;;;;;;18.55;13.00;;;;;;;;;;4368903;32;318826;-82
2023/08/16 05:11:12;;;;;;;26.77;16.77;;;;;;;;;;4360512;32;319312;-81
2023/08/16 05:13:38;;;;;;;23.52;11.98;;;;;;;;;;4378982;32;319292;-82
2023/08/16 05:16:05;;;;;;;22.48;11.93;;;;;;;;;;4373479;32;319001;-82
2023/08/16 05:18:32;;;;;;;19.30;10.60;;;;;;;;;;4384200;32;337087;-82
2023/08/16 05:21:00;;;;;;;27.55;13.18;;;;;;;;;;4374690;32;319055;-82
2023/08/16 05:23:27;;;;;;;24.23;13.13;;;;;;;;;;4383550;32;319227;-82
2023/08/16 05:25:54;;;;;;;25.88;13.25;;;;;;;;;;4384826;32;319437;-82
2023/08/16 05:28:23;;;;;;;28.87;12.93;;;;;;;;;;4371063;32;419955;-82
2023/08/16 05:30:49;;;;;;;20.08;12.63;;;;;;;;;;4384343;32;319555;-82
2023/08/16 05:33:16;;;;;;;17.52;10.27;;;;;;;;;;4373276;32;319156;-82
2023/08/16 05:35:43;;;;;;;16.40;9.48;;;;;;;;;;4384300;32;319267;-82
2023/08/16 05:38:10;;;;;;;16.02;11.25;;;;;;;;;;4374556;32;317761;-82
2023/08/16 05:40:36;;;;;;;16.73;9.77;;;;;;;;;;4383467;32;319324;-82
2023/08/16 05:43:03;;;;;;;13.25;9.35;;;;;;;;;;4372175;32;348643;-82
2023/08/16 05:45:32;;;;;;;22.87;10.68;;;;;;;;;;4383030;32;318196;-82
2023/08/16 05:47:59;;;;;;;14.90;9.52;;;;;;;;;;4360291;32;318962;-82
2023/08/16 05:50:25;;;;;;;21.17;11.38;;;;;;;;;;4384254;32;318797;-82
2023/08/16 05:52:52;;;;;;;18.37;10.27;;;;;;;;;;4382903;32;318549;-83
2023/08/16 05:55:19;;;;;;;16.58;10.07;;;;;;;;;;4374448;32;318822;-82
2023/08/16 05:57:46;;;;;;;13.50;9.50;;;;;;;;;;4384432;32;319285;-81
2023/08/16 06:00:13;;;;;;;22.92;10.75;;;;;;;;;;4373201;32;317707;-82
2023/08/16 06:02:41;;;;;;;17.60;9.93;;;;;;;;;;4385844;32;319236;-82
2023/08/16 06:05:10;;;;;;;19.48;10.05;;;;;;;;;;4389270;32;317936;-81
2023/08/16 06:07:37;;;;;;;16.80;11.65;;;;;;;;;;4398851;32;318593;-82
2023/08/16 06:10:04;;;;;;;13.20;10.57;;;;;;;;;;4368578;32;318897;-82
2023/08/16 06:12:31;;;;;;;18.42;11.73;;;;;;;;;;4382924;32;318933;-81
2023/08/16 06:14:58;;;;;;;21.50;11.88;;;;;;;;;;4373847;32;319063;-82
2023/08/16 06:17:24;;;;;;;15.30;11.30;;;;;;;;;;4382407;32;319211;-82
2023/08/16 06:19:53;;;;;;;14.90;11.50;;;;;;;;;;4382469;32;319233;-82
2023/08/16 06:22:19;;;;;;;17.85;10.52;;;;;;;;;;4369760;32;419792;-82
2023/08/16 06:24:46;;;;;;;15.35;11.48;;;;;;;;;;4382421;32;319165;-82
2023/08/16 06:27:14;;;;;;;13.90;11.07;;;;;;;;;;4370739;32;319634;-82
2023/08/16 06:29:41;;;;;;;15.50;10.52;;;;;;;;;;4376482;32;319695;-82
2023/08/16 06:32:08;;;;;;;20.95;11.38;;;;;;;;;;4367133;32;319307;-82
2023/08/16 06:34:35;;;;;;;20.70;11.88;;;;;;;;;;4369504;32;318742;-82
2023/08/16 06:37:04;;;;;;;16.30;10.65;;;;;;;;;;4372917;32;319316;-82
2023/08/16 06:39:31;;;;;;;22.65;11.27;;;;;;;;;;4383253;32;318719;-82
2023/08/16 06:41:57;;;;;;;18.98;10.57;;;;;;;;;;4372197;32;319490;-82
2023/08/16 06:44:24;;;;;;;12.65;9.75;;;;;;;;;;4382403;32;324063;-82
2023/08/16 06:46:51;;;;;;;14.70;10.60;;;;;;;;;;4383335;32;317533;-82
2023/08/16 06:49:18;;;;;;;15.52;10.55;;;;;;;;;;4373019;32;329204;-82
2023/08/16 06:51:45;;;;;;;14.98;11.32;;;;;;;;;;4383180;32;319531;-81
2023/08/16 06:54:13;;;;;;;16.00;9.98;;;;;;;;;;4371339;32;318719;-82
2023/08/16 06:56:40;;;;;;;17.20;11.12;;;;;;;;;;4368026;32;318129;-82
2023/08/16 06:59:07;;;;;;;14.57;10.38;;;;;;;;;;4358189;32;319732;-81
2023/08/16 07:01:33;;;;;;;12.45;9.32;;;;;;;;;;4366942;32;319446;-82
2023/08/16 07:04:01;;;;;;;15.55;9.63;;;;;;;;;;4357630;32;317998;-82
2023/08/16 07:26:05;;;;;;;11.73;8.38;;;;;;;;;;4489084;31;20277;-81
2023/08/16 07:28:31;;;;;;;12.63;8.75;;;;;;;;;;4462843;32;317438;-82
2023/08/16 07:30:58;;;;;;;11.00;9.18;;;;;;;;;;4447876;32;318106;-82
2023/08/16 07:33:25;;;;;;;9.88;8.88;;;;;;;;;;4457788;32;317557;-82
2023/08/16 07:35:52;;;;;;;19.23;8.43;;;;;;;;;;4457888;32;316859;-82
2023/08/16 07:38:19;;;;;;;12.35;7.62;;;;;;;;;;4447643;32;318501;-81
2023/08/16 07:40:49;;;;;;;13.60;7.70;;;;;;;;;;4456539;32;318269;-82
2023/08/16 07:43:17;;;;;;;11.38;7.05;;;;;;;;;;4446042;32;317886;-82
2023/08/16 07:45:44;;;;;;;9.02;7.60;;;;;;;;;;4457700;32;318396;-81
2023/08/16 07:48:10;;;;;;;10.10;8.40;;;;;;;;;;4446264;32;317205;-82
2023/08/16 07:50:37;;;;;;;11.10;7.97;;;;;;;;;;4456719;32;345695;-82
2023/08/16 07:53:04;;;;;;;12.37;7.95;;;;;;;;;;4447545;32;318127;-82
2023/08/16 07:55:33;;;;;;;14.45;8.65;;;;;;;;;;4457275;32;318199;-82
2023/08/16 07:58:00;;;;;;;9.27;7.90;;;;;;;;;;4447522;32;318469;-82
2023/08/16 08:00:29;;;;;;;12.23;7.85;;;;;;;;;;4457635;32;317418;-83
2023/08/16 08:02:56;;;;;;;14.35;8.02;;;;;;;;;;4459897;32;318592;-82
2023/08/16 08:05:23;;;;;;;10.48;7.57;;;;;;;;;;4466499;32;318380;-81
2023/08/16 08:07:52;;;;;;;13.23;7.87;;;;;;;;;;4457468;32;318384;-81
2023/08/16 08:10:20;;;;;;;15.63;8.65;;;;;;;;;;4446230;32;349879;-82
2023/08/16 08:12:46;;;;;;;10.98;8.57;;;;;;;;;;4455671;32;317691;-81
2023/08/16 08:15:14;;;;;;;15.60;8.67;;;;;;;;;;4444935;32;356800;-81
2023/08/16 08:17:42;;;;;;;11.90;7.65;;;;;;;;;;4456426;32;318480;-81
2023/08/16 08:20:10;;;;;;;12.57;8.93;;;;;;;;;;4445818;32;318714;-81
2023/08/16 08:22:37;;;;;;;10.73;8.18;;;;;;;;;;4457291;32;318184;-81
2023/08/16 08:25:05;;;;;;;10.85;7.75;;;;;;;;;;4444644;32;318404;-81
2023/08/16 08:27:32;;;;;;;13.05;8.48;;;;;;;;;;4446066;32;318789;-81
2023/08/16 08:29:58;;;;;;;12.35;9.05;;;;;;;;;;4433503;32;351309;-82
2023/08/16 08:32:25;;;;;;;14.57;8.20;;;;;;;;;;4445710;32;345163;-82
2023/08/16 08:34:53;;;;;;;14.23;9.02;;;;;;;;;;4446103;32;318233;-82
2023/08/16 08:37:20;;;;;;;20.48;9.35;;;;;;;;;;4433244;32;417906;-82
2023/08/16 08:39:47;;;;;;;22.40;8.80;;;;;;;;;;4445969;32;318239;-82
2023/08/16 08:42:14;;;;;;;10.70;8.10;;;;;;;;;;4436073;32;318132;-82
2023/08/16 08:44:43;;;;;;;14.23;8.48;;;;;;;;;;4446009;32;318702;-82
2023/08/16 08:47:10;;;;;;;14.87;8.88;;;;;;;;;;4434870;32;318363;-82
2023/08/16 08:49:38;;;;;;;10.68;8.27;;;;;;;;;;4445910;32;318110;-82
2023/08/16 08:52:06;;;;;;;14.27;8.20;;;;;;;;;;4434867;32;318010;-82
2023/08/16 08:54:33;;;;;;;9.75;7.93;;;;;;;;;;4448540;32;317570;-82
2023/08/16 08:57:00;;;;;;;10.75;7.45;;;;;;;;;;4436947;32;317213;-82
2023/08/16 08:59:28;;;;;;;11.88;8.52;;;;;;;;;;4461555;32;318347;-82
2023/08/16 09:01:56;;;;;;;14.57;7.43;;;;;;;;;;4451450;32;318473;-83
2023/08/16 09:04:23;;;;;;;12.10;8.07;;;;;;;;;;4459808;32;318404;-82
2023/08/16 09:06:50;;;;;;;14.70;7.62;;;;;;;;;;4460433;32;318114;-83
2023/08/16 09:09:18;;;;;;;14.87;7.95;;;;;;;;;;4450158;32;318152;-82
2023/08/16 09:11:44;;;;;;;15.38;8.45;;;;;;;;;;4460144;32;318107;-82
2023/08/16 09:14:11;;;;;;;11.02;8.90;;;;;;;;;;4450265;32;347465;-81
2023/08/16 09:16:38;;;;;;;12.07;8.27;;;;;;;;;;4461485;32;318531;-81
2023/08/16 09:19:13;;;;;;;10.50;8.82;;;;;;;;;;4451241;32;318582;-81
2023/08/16 09:21:41;;;;;;;12.30;7.55;;;;;;;;;;4461324;32;318201;-80
2023/08/16 09:24:07;;;;;;;13.90;8.30;;;;;;;;;;4449445;32;328313;-80
2023/08/16 09:26:37;;;;;;;11.20;7.37;;;;;;;;;;4460698;32;318225;-80
2023/08/16 09:29:04;;;;;;;13.73;7.25;;;;;;;;;;4428571;32;318350;-80
2023/08/16 09:31:37;;;;;;;11.90;7.68;;;;;;;;;;4444406;32;318367;-80
2023/08/16 09:34:04;;;;;;;13.25;7.30;;;;;;;;;;4435697;32;317975;-80
2023/08/16 09:36:31;;;;;;;9.70;7.45;;;;;;;;;;4445343;32;318123;-80
2023/08/16 09:39:01;;;;;;;20.60;8.23;;;;;;;;;;4434851;32;317406;-83
2023/08/16 09:41:27;;;;;;;10.52;8.13;;;;;;;;;;4443741;32;332621;-82
2023/08/16 09:44:04;;;;;;;19.05;8.57;;;;;;;;;;4445540;32;318251;-81
2023/08/16 09:46:31;;;;;;;19.20;8.57;;;;;;;;;;4431781;32;416717;-82
2023/08/16 09:49:03;;;;;;;9.55;8.05;;;;;;;;;;4433809;32;318600;-82
2023/08/16 09:51:32;;;;;;;9.18;7.72;;;;;;;;;;4444684;32;342321;-81
2023/08/16 09:54:00;;;;;;;9.77;7.25;;;;;;;;;;4433358;32;374615;-82
2023/08/16 09:56:28;;;;;;;23.40;8.63;;;;;;;;;;4430600;32;317317;-82
2023/08/16 09:58:56;;;;;;;13.43;7.47;;;;;;;;;;4446634;32;318443;-82
2023/08/16 10:01:24;;;;;;;11.80;8.02;;;;;;;;;;4459756;32;318084;-82
2023/08/16 10:03:53;;;;;;;13.70;7.78;;;;;;;;;;4460486;32;318128;-81
2023/08/16 10:06:23;;;;;;;9.05;7.55;;;;;;;;;;4447546;32;417538;-82
2023/08/16 10:08:50;;;;;;;13.73;8.05;;;;;;;;;;4459240;32;317124;-83
2023/08/16 10:11:17;;;;;;;13.45;7.85;;;;;;;;;;4450075;32;318527;-82
2023/08/16 10:13:45;;;;;;;11.95;7.05;;;;;;;;;;4459272;32;318327;-82
2023/08/16 10:16:14;;;;;;;10.50;7.10;;;;;;;;;;4450738;32;318570;-82
2023/08/16 10:18:43;;;;;;;11.43;8.13;;;;;;;;;;4459583;32;318541;-82
2023/08/16 10:21:15;;;;;;;14.75;7.65;;;;;;;;;;4450486;32;318218;-82
2023/08/16 10:23:42;;;;;;;12.43;8.00;;;;;;;;;;4460497;32;318184;-82
2023/08/16 10:26:13;;;;;;;10.52;7.22;;;;;;;;;;4449825;32;318659;-82
2023/08/16 10:28:43;;;;;;;16.27;7.28;;;;;;;;;;4448845;32;318279;-82
2023/08/16 10:31:12;;;;;;;11.48;7.22;;;;;;;;;;4434936;32;318472;-82
2023/08/16 10:33:44;;;;;;;11.48;7.60;;;;;;;;;;4443296;32;317909;-82
2023/08/16 10:36:11;;;;;;;9.13;7.30;;;;;;;;;;4434539;32;331323;-82
2023/08/16 10:38:38;;;;;;;13.43;7.18;;;;;;;;;;4443591;32;317008;-81
2023/08/16 10:41:11;;;;;;;17.73;6.47;;;;;;;;;;4434384;32;318050;-82
2023/08/16 10:43:38;;;;;;;11.07;7.30;;;;;;;;;;4443752;32;318010;-81
2023/08/16 10:46:05;;;;;;;11.50;8.18;;;;;;;;;;4433291;32;318019;-81
2023/08/16 10:48:34;;;;;;;11.12;7.40;;;;;;;;;;4443414;32;348934;-82
2023/08/16 10:51:06;;;;;;;12.35;6.85;;;;;;;;;;4433176;32;318488;-83
2023/08/16 10:53:34;;;;;;;8.02;6.18;;;;;;;;;;4446127;32;317709;-82
2023/08/16 10:56:06;;;;;;;12.30;6.78;;;;;;;;;;4436185;32;317156;-82
2023/08/16 10:58:45;;;;;;;14.45;6.78;;;;;;;;;;4444560;32;318371;-82
2023/08/16 11:01:11;;;;;;;10.47;6.17;;;;;;;;;;4433486;32;335343;-82
2023/08/16 11:03:39;;;;;;;9.07;6.35;;;;;;;;;;4444349;32;317500;-82
2023/08/16 11:06:12;;;;;;;10.93;6.55;;;;;;;;;;4432727;32;317376;-82
2023/08/16 11:08:42;;;;;;;13.98;6.07;;;;;;;;;;4444588;32;318384;-82
2023/08/16 11:11:09;;;;;;;10.65;5.78;;;;;;;;;;4434087;32;318540;-82
2023/08/16 11:13:36;;;;;;;11.68;6.28;;;;;;;;;;4444430;32;317657;-82
2023/08/16 11:16:04;;;;;;;16.83;6.87;;;;;;;;;;4434679;32;318297;-83
2023/08/16 11:18:32;;;;;;;12.50;6.22;;;;;;;;;;4443422;32;318076;-82
2023/08/16 11:21:00;;;;;;;9.48;6.15;;;;;;;;;;4430724;32;318018;-80
2023/08/16 11:23:35;;;;;;;11.98;5.97;;;;;;;;;;4444312;32;317227;-81
2023/08/16 11:26:03;;;;;;;8.80;6.45;;;;;;;;;;4433843;32;318180;-80
2023/08/16 11:28:31;;;;;;;8.25;5.78;;;;;;;;;;4443969;32;316515;-81
2023/08/16 11:30:58;;;;;;;8.60;5.62;;;;;;;;;;4433517;32;317663;-81
2023/08/16 11:33:25;;;;;;;9.85;5.65;;;;;;;;;;4443953;32;316290;-81
2023/08/16 11:35:53;;;;;;;14.73;6.37;;;;;;;;;;4443906;32;317463;-81
2023/08/16 11:38:22;;;;;;;8.25;6.05;;;;;;;;;;4430857;32;417363;-81
2023/08/16 11:40:50;;;;;;;12.57;6.70;;;;;;;;;;4443803;32;316460;-82
2023/08/16 11:43:19;;;;;;;7.50;6.18;;;;;;;;;;4433893;32;318363;-81
2023/08/16 11:45:52;;;;;;;15.27;6.10;;;;;;;;;;4443240;32;316614;-81
2023/08/16 11:48:18;;;;;;;16.37;6.35;;;;;;;;;;4434251;32;317784;-82
2023/08/16 11:50:45;;;;;;;21.55;6.65;;;;;;;;;;4432968;32;317595;-83
2023/08/16 11:53:16;;;;;;;7.45;5.70;;;;;;;;;;4432942;32;318391;-81
2023/08/16 11:55:43;;;;;;;12.60;5.32;;;;;;;;;;4453158;32;317281;-81
2023/08/16 11:58:11;;;;;;;15.07;6.28;;;;;;;;;;4448829;32;318298;-81
2023/08/16 12:00:40;;;;;;;13.32;5.90;;;;;;;;;;4460711;32;318347;-81
2023/08/16 12:03:10;;;;;;;15.85;6.30;;;;;;;;;;4452691;32;318430;-82
2023/08/16 12:05:38;;;;;;;11.25;5.65;;;;;;;;;;4462641;32;318823;-82
2023/08/16 12:08:06;;;;;;;10.40;5.55;;;;;;;;;;4452354;32;347566;-82
2023/08/16 12:10:33;;;;;;;8.77;5.90;;;;;;;;;;4461967;32;318360;-81
2023/08/16 12:13:00;;;;;;;9.02;5.28;;;;;;;;;;4448399;32;329737;-82
2023/08/16 12:15:29;;;;;;;11.60;6.00;;;;;;;;;;4462280;32;317413;-81
2023/08/16 12:17:56;;;;;;;6.40;5.18;;;;;;;;;;4452599;32;318546;-82
2023/08/16 12:20:24;;;;;;;10.25;6.05;;;;;;;;;;4461093;32;316715;-82
2023/08/16 12:22:52;;;;;;;8.70;5.72;;;;;;;;;;4463171;32;318331;-82
2023/08/16 12:25:19;;;;;;;9.00;5.85;;;;;;;;;;4451758;32;317637;-82
2023/08/16 12:27:47;;;;;;;16.75;6.00;;;;;;;;;;4456181;32;317208;-82
2023/08/16 12:30:14;;;;;;;9.20;5.95;;;;;;;;;;4435542;32;318184;-82
2023/08/16 12:32:42;;;;;;;9.02;5.05;;;;;;;;;;4446979;32;316519;-82
2023/08/16 12:35:09;;;;;;;8.02;5.47;;;;;;;;;;4435045;32;328859;-82
2023/08/16 12:37:36;;;;;;;8.82;5.53;;;;;;;;;;4444353;32;356420;-82
2023/08/16 12:40:04;;;;;;;8.82;5.62;;;;;;;;;;4433867;32;349377;-82
2023/08/16 12:42:30;;;;;;;10.13;5.70;;;;;;;;;;4448214;32;349506;-81
2023/08/16 12:44:57;;;;;;;10.73;6.07;;;;;;;;;;4451879;32;318174;-82
2023/08/16 12:47:24;;;;;;;22.90;5.55;;;;;;;;;;4451560;32;318116;-82
2023/08/16 12:49:52;;;;;;;9.90;4.72;;;;;;;;;;4445350;32;318653;-82
2023/08/16 12:52:20;;;;;;;10.27;5.68;;;;;;;;;;4435005;32;317210;-81
2023/08/16 12:54:46;;;;;;;11.77;5.37;;;;;;;;;;4445744;32;318155;-82
2023/08/16 12:57:13;;;;;;;8.35;5.70;;;;;;;;;;4436290;32;318522;-82
2023/08/16 12:59:40;;;;;;;6.35;4.85;;;;;;;;;;4444920;32;317256;-82
2023/08/16 13:02:06;;;;;;;7.35;5.20;;;;;;;;;;4436529;32;317425;-82
2023/08/16 13:04:33;;;;;;;7.40;4.95;;;;;;;;;;4445930;32;317406;-82
2023/08/16 13:07:02;;;;;;;8.48;5.18;;;;;;;;;;4435006;32;317553;-82
2023/08/16 13:09:29;;;;;;;10.30;5.37;;;;;;;;;;4444764;32;317216;-82
2023/08/16 13:11:56;;;;;;;7.72;5.15;;;;;;;;;;4433746;32;317674;-83
2023/08/16 13:14:22;;;;;;;10.75;5.28;;;;;;;;;;4445660;32;317128;-82
2023/08/16 13:16:49;;;;;;;8.98;4.87;;;;;;;;;;4444953;32;318623;-82
2023/08/16 13:19:16;;;;;;;8.40;5.10;;;;;;;;;;4434931;32;317316;-82
2023/08/16 13:21:42;;;;;;;12.55;5.20;;;;;;;;;;4446046;32;317200;-82
2023/08/16 13:24:12;;;;;;;13.48;4.97;;;;;;;;;;4433826;32;318075;-82
2023/08/16 13:26:39;;;;;;;12.02;5.25;;;;;;;;;;4444503;32;318319;-80
2023/08/16 13:29:07;;;;;;;11.10;5.30;;;;;;;;;;4434235;32;318428;-80
2023/08/16 13:31:34;;;;;;;9.45;4.95;;;;;;;;;;4444715;32;318128;-80
2023/08/16 13:34:01;;;;;;;5.85;4.28;;;;;;;;;;4434775;32;317305;-80
2023/08/16 13:36:28;;;;;;;17.08;5.60;;;;;;;;;;4445354;32;316986;-80
2023/08/16 13:38:54;;;;;;;10.63;4.60;;;;;;;;;;4448748;32;318134;-80
2023/08/16 13:41:23;;;;;;;11.90;5.62;;;;;;;;;;4448055;32;417449;-80
2023/08/16 13:43:50;;;;;;;13.50;4.97;;;;;;;;;;4449595;32;318531;-80
2023/08/16 13:46:17;;;;;;;7.75;5.20;;;;;;;;;;4435694;32;318332;-80
2023/08/16 13:48:43;;;;;;;5.15;4.43;;;;;;;;;;4445645;32;317598;-80
2023/08/16 13:51:10;;;;;;;9.05;4.95;;;;;;;;;;4434244;32;316664;-80
2023/08/16 13:53:37;;;;;;;7.93;5.80;;;;;;;;;;4444009;32;316705;-80
2023/08/16 13:56:04;;;;;;;14.70;5.22;;;;;;;;;;4435094;32;317475;-80
2023/08/16 13:58:33;;;;;;;7.47;4.62;;;;;;;;;;4443937;32;318228;-80
2023/08/16 14:01:00;;;;;;;12.80;4.82;;;;;;;;;;4434215;32;317363;-81
2023/08/16 14:03:27;;;;;;;11.43;5.05;;;;;;;;;;4444173;32;316789;-79
2023/08/16 14:05:59;;;;;;;12.52;4.60;;;;;;;;;;4429719;32;318004;-80
2023/08/16 14:08:26;;;;;;;8.70;4.78;;;;;;;;;;4432123;32;417314;-80
2023/08/16 14:10:55;;;;;;;6.22;5.10;;;;;;;;;;4444592;32;317188;-80
2023/08/16 14:13:22;;;;;;;7.78;4.60;;;;;;;;;;4431827;32;416459;-79
2023/08/16 14:15:54;;;;;;;7.32;5.07;;;;;;;;;;4445095;32;317224;-82
2023/08/16 14:18:21;;;;;;;7.85;5.95;;;;;;;;;;4432389;32;416901;-79
2023/08/16 14:20:49;;;;;;;19.98;5.57;;;;;;;;;;4443897;32;354065;-80
2023/08/16 14:23:15;;;;;;;8.93;5.80;;;;;;;;;;4434440;32;318061;-80
2023/08/16 14:25:45;;;;;;;9.88;5.20;;;;;;;;;;4444377;32;317117;-81
2023/08/16 14:28:12;;;;;;;7.60;5.45;;;;;;;;;;4433499;32;317342;-80
2023/08/16 14:30:41;;;;;;;10.05;5.68;;;;;;;;;;4443994;32;317299;-80
2023/08/16 14:33:09;;;;;;;8.95;6.62;;;;;;;;;;4434945;32;318365;-81
2023/08/16 14:35:36;;;;;;;7.30;5.93;;;;;;;;;;4444009;32;317115;-81
2023/08/16 14:38:03;;;;;;;20.70;6.60;;;;;;;;;;4434985;32;317538;-81
2023/08/16 14:40:29;;;;;;;13.57;6.65;;;;;;;;;;4444066;32;318229;-82